createdAt,value
2019-04-23T00:00:20.251Z,929.08
2019-04-23T00:02:19.211Z,929.07
2019-04-23T00:03:18.817Z,929.07
2019-04-23T00:04:20.451Z,929.08
2019-04-23T00:05:29.133Z,929.10
2019-04-23T00:07:43.145Z,929.10
2019-04-23T00:08:42.221Z,929.11
2019-04-23T00:11:30.788Z,929.22
2019-04-23T00:12:32.711Z,929.20
2019-04-23T00:13:24.565Z,929.21
2019-04-23T00:15:23.991Z,929.27
2019-04-23T00:16:26.371Z,929.34
2019-04-23T00:17:22.609Z,929.29
2019-04-23T00:18:35.558Z,929.28
2019-04-23T00:20:20.105Z,929.32
2019-04-23T00:21:24.805Z,929.35
2019-04-23T00:22:19.974Z,929.35
2019-04-23T00:23:18.912Z,929.32
2019-04-23T00:24:32.019Z,929.36
2019-04-23T00:26:33.305Z,929.36
2019-04-23T00:29:28.073Z,929.41
2019-04-23T00:30:27.563Z,929.43
2019-04-23T00:31:24.598Z,929.40
2019-04-23T00:32:31.886Z,929.44
2019-04-23T00:34:26.050Z,929.48
2019-04-23T00:35:18.155Z,929.47
2019-04-23T00:36:27.522Z,929.45
2019-04-23T00:37:25.705Z,929.52
2019-04-23T00:38:26.516Z,929.55
2019-04-23T00:39:26.448Z,929.53
2019-04-23T00:40:21.793Z,929.49
2019-04-23T00:41:25.340Z,929.48
2019-04-23T00:42:31.331Z,929.42
2019-04-23T00:43:32.594Z,929.47
2019-04-23T00:44:22.882Z,929.47
2019-04-23T00:45:24.700Z,929.49
2019-04-23T00:46:23.362Z,929.53
2019-04-23T00:47:25.649Z,929.55
2019-04-23T00:48:29.400Z,929.52
2019-04-23T00:49:27.331Z,929.55
2019-04-23T00:51:20.246Z,929.58
2019-04-23T00:52:24.726Z,929.58
2019-04-23T00:53:23.115Z,929.59
2019-04-23T00:54:28.825Z,929.61
2019-04-23T00:55:35.643Z,929.61
2019-04-23T00:57:24.282Z,929.65
2019-04-23T00:59:20.998Z,929.71
2019-04-23T01:00:31.319Z,929.74
2019-04-23T01:01:18.292Z,929.69
2019-04-23T01:02:23.779Z,929.62
2019-04-23T01:03:17.535Z,929.72
2019-04-23T01:04:17.300Z,929.72
2019-04-23T01:05:24.810Z,929.77
2019-04-23T01:06:19.326Z,929.76
2019-04-23T01:07:18.766Z,929.77
2019-04-23T01:09:22.232Z,929.76
2019-04-23T01:10:25.568Z,929.80
2019-04-23T01:11:21.211Z,929.76
2019-04-23T01:12:29.920Z,929.81
2019-04-23T01:13:22.977Z,929.82
2019-04-23T01:14:20.257Z,929.84
2019-04-23T01:15:26.055Z,929.86
2019-04-23T01:16:18.201Z,929.87
2019-04-23T01:17:28.985Z,929.86
2019-04-23T01:18:32.101Z,929.86
2019-04-23T01:19:28.468Z,929.86
2019-04-23T01:20:22.370Z,929.87
2019-04-23T01:20:58.760Z,929.85
2019-04-23T01:22:00.036Z,929.87
2019-04-23T01:22:59.062Z,929.80
2019-04-23T01:24:05.698Z,929.83
2019-04-23T01:25:11.243Z,929.78
2019-04-23T01:26:18.127Z,929.77
2019-04-23T01:28:42.070Z,929.76
2019-04-23T01:29:28.306Z,929.76
2019-04-23T01:30:22.196Z,929.75
2019-04-23T01:32:25.700Z,929.70
2019-04-23T01:33:35.816Z,929.74
2019-04-23T01:34:24.475Z,929.70
2019-04-23T01:35:36.018Z,929.67
2019-04-23T01:37:26.801Z,929.64
2019-04-23T01:38:27.938Z,929.67
2019-04-23T01:39:23.291Z,929.60
2019-04-23T01:40:29.840Z,929.62
2019-04-23T01:41:30.365Z,929.61
2019-04-23T01:42:29.347Z,929.61
2019-04-23T01:43:23.502Z,929.60
2019-04-23T01:44:32.785Z,929.61
2019-04-23T01:45:30.707Z,929.60
2019-04-23T01:46:27.309Z,929.61
2019-04-23T01:47:25.197Z,929.64
2019-04-23T01:48:26.172Z,929.65
2019-04-23T01:49:31.208Z,929.67
2019-04-23T01:51:26.493Z,929.70
2019-04-23T01:52:31.934Z,929.65
2019-04-23T01:53:26.808Z,929.67
2019-04-23T01:54:25.965Z,929.65
2019-04-23T01:55:26.359Z,929.62
2019-04-23T01:56:25.972Z,929.64
2019-04-23T01:57:28.922Z,929.58
2019-04-23T01:59:24.627Z,929.55
2019-04-23T02:01:25.333Z,929.62
2019-04-23T02:02:33.319Z,929.61
2019-04-23T02:03:20.692Z,929.64
2019-04-23T02:04:22.969Z,929.65
2019-04-23T02:06:25.117Z,929.56
2019-04-23T02:07:29.945Z,929.65
2019-04-23T02:08:19.960Z,929.61
2019-04-23T02:09:25.489Z,929.55
2019-04-23T02:10:29.781Z,929.52
2019-04-23T02:11:16.425Z,929.49
2019-04-23T02:12:28.925Z,929.51
2019-04-23T02:15:23.008Z,929.41
2019-04-23T02:16:24.642Z,929.44
2019-04-23T02:17:23.335Z,929.48
2019-04-23T02:18:23.393Z,929.45
2019-04-23T02:19:23.546Z,929.47
2019-04-23T02:21:25.770Z,929.52
2019-04-23T02:22:31.629Z,929.54
2019-04-23T02:23:24.652Z,929.56
2019-04-23T02:24:30.415Z,929.55
2019-04-23T02:25:31.705Z,929.55
2019-04-23T02:27:28.082Z,929.51
2019-04-23T02:28:28.575Z,929.40
2019-04-23T02:29:36.560Z,929.43
2019-04-23T02:31:44.898Z,929.46
2019-04-23T02:32:29.034Z,929.42
2019-04-23T02:33:34.414Z,929.42
2019-04-23T02:34:51.258Z,929.40
2019-04-23T02:35:46.782Z,929.45
2019-04-23T02:36:32.330Z,929.44
2019-04-23T02:37:49.286Z,929.45
2019-04-23T02:39:31.218Z,929.46
2019-04-23T02:40:43.409Z,929.45
2019-04-23T02:41:34.678Z,929.49
2019-04-23T02:44:30.354Z,929.51
2019-04-23T02:45:45.931Z,929.49
2019-04-23T02:46:15.536Z,929.49
2019-04-23T02:47:32.634Z,929.46
2019-04-23T02:49:36.047Z,929.49
2019-04-23T02:51:35.270Z,929.50
2019-04-23T02:52:32.112Z,929.50
2019-04-23T02:53:37.639Z,929.49
2019-04-23T02:54:44.582Z,929.43
2019-04-23T02:55:38.532Z,929.49
2019-04-23T02:57:33.404Z,929.51
2019-04-23T02:59:56.037Z,929.50
2019-04-23T03:01:03.584Z,929.50
2019-04-23T03:04:33.962Z,929.39
2019-04-23T03:05:26.350Z,929.43
2019-04-23T03:06:29.116Z,929.44
2019-04-23T03:07:37.632Z,929.42
2019-04-23T03:10:31.731Z,929.45
2019-04-23T03:12:31.793Z,929.47
2019-04-23T03:13:35.328Z,929.47
2019-04-23T03:15:43.626Z,929.52
2019-04-23T03:17:27.372Z,929.53
2019-04-23T03:20:43.602Z,929.57
2019-04-23T03:22:30.175Z,929.57
2019-04-23T03:23:32.020Z,929.53
2019-04-23T03:25:36.180Z,929.51
2019-04-23T03:26:45.487Z,929.54
2019-04-23T03:27:31.901Z,929.55
2019-04-23T03:28:37.665Z,929.55
2019-04-23T03:29:38.133Z,929.56
2019-04-23T03:30:48.687Z,929.59
2019-04-23T03:33:02.187Z,929.59
2019-04-23T03:35:16.085Z,929.56
2019-04-23T03:36:01.682Z,929.55
2019-04-23T03:37:00.577Z,929.55
2019-04-23T03:37:33.979Z,929.49
2019-04-23T03:38:41.670Z,929.47
2019-04-23T03:39:40.253Z,929.53
2019-04-23T03:40:18.805Z,929.55
2019-04-23T03:41:31.964Z,929.49
2019-04-23T03:42:42.740Z,929.47
2019-04-23T03:43:33.248Z,929.48
2019-04-23T03:44:29.116Z,929.46
2019-04-23T03:45:37.052Z,929.46
2019-04-23T03:47:32.516Z,929.40
2019-04-23T03:48:34.099Z,929.42
2019-04-23T03:49:33.340Z,929.43
2019-04-23T03:50:29.895Z,929.43
2019-04-23T03:51:38.300Z,929.42
2019-04-23T03:53:38.696Z,929.44
2019-04-23T03:55:45.390Z,929.37
2019-04-23T03:56:41.673Z,929.39
2019-04-23T03:58:39.063Z,929.39
2019-04-23T03:59:36.936Z,929.41
2019-04-23T04:00:32.698Z,929.43
2019-04-23T04:01:30.080Z,929.40
2019-04-23T04:02:39.870Z,929.41
2019-04-23T04:05:45.425Z,929.38
2019-04-23T04:06:37.526Z,929.35
2019-04-23T04:07:49.476Z,929.41
2019-04-23T04:10:25.354Z,929.39
2019-04-23T04:12:29.190Z,929.42
2019-04-23T04:15:47.093Z,929.42
2019-04-23T04:16:28.258Z,929.43
2019-04-23T04:18:38.938Z,929.44
2019-04-23T04:19:32.023Z,929.41
2019-04-23T04:20:33.034Z,929.40
2019-04-23T04:21:45.890Z,929.43
2019-04-23T04:24:36.770Z,929.38
2019-04-23T04:28:27.835Z,929.43
2019-04-23T04:30:38.823Z,929.35
2019-04-23T04:31:34.698Z,929.33
2019-04-23T04:32:53.334Z,929.37
2019-04-23T04:35:22.190Z,929.30
2019-04-23T04:39:29.287Z,929.29
2019-04-23T04:41:34.528Z,929.26
2019-04-23T04:42:28.569Z,929.26
2019-04-23T04:43:31.666Z,929.19
2019-04-23T04:45:47.360Z,929.20
2019-04-23T04:47:42.427Z,929.16
2019-04-23T04:48:26.104Z,929.13
2019-04-23T04:49:34.239Z,929.15
2019-04-23T04:50:28.453Z,929.16
2019-04-23T04:54:22.547Z,929.16
2019-04-23T04:55:28.367Z,929.17
2019-04-23T04:56:32.687Z,929.09
2019-04-23T04:59:25.751Z,929.13
2019-04-23T05:00:34.725Z,929.06
2019-04-23T05:01:23.221Z,929.09
2019-04-23T05:02:53.836Z,929.07
2019-04-23T05:03:23.910Z,929.06
2019-04-23T05:04:26.707Z,929.03
2019-04-23T05:05:54.184Z,928.99
2019-04-23T05:07:40.371Z,929.01
2019-04-23T05:08:29.118Z,929.04
2019-04-23T05:09:29.290Z,929.09
2019-04-23T05:10:32.445Z,929.10
2019-04-23T05:11:35.097Z,929.15
2019-04-23T05:12:30.737Z,929.13
2019-04-23T05:14:33.441Z,929.14
2019-04-23T05:15:17.299Z,929.17
2019-04-23T05:17:30.199Z,929.19
2019-04-23T05:18:28.802Z,929.19
2019-04-23T05:21:20.243Z,929.22
2019-04-23T05:22:24.584Z,929.20
2019-04-23T05:23:28.415Z,929.23
2019-04-23T05:24:21.813Z,929.23
2019-04-23T05:25:17.435Z,929.23
2019-04-23T05:26:27.471Z,929.27
2019-04-23T05:27:17.565Z,929.21
2019-04-23T05:28:25.049Z,929.23
2019-04-23T05:29:14.721Z,929.19
2019-04-23T05:30:24.807Z,929.18
2019-04-23T05:31:23.261Z,929.22
2019-04-23T05:32:19.478Z,929.21
2019-04-23T05:33:23.780Z,929.17
2019-04-23T05:34:17.535Z,929.15
2019-04-23T05:35:42.829Z,929.10
2019-04-23T05:37:29.392Z,929.10
2019-04-23T05:38:35.824Z,929.05
2019-04-23T05:40:30.624Z,929.06
2019-04-23T05:41:21.939Z,929.01
2019-04-23T05:42:19.848Z,928.95
2019-04-23T05:43:22.379Z,928.99
2019-04-23T05:44:21.222Z,928.96
2019-04-23T05:45:21.685Z,928.95
2019-04-23T05:46:26.361Z,928.95
2019-04-23T05:47:23.237Z,928.95
2019-04-23T05:48:23.403Z,928.91
2019-04-23T05:49:22.738Z,928.90
2019-04-23T05:50:30.224Z,928.93
2019-04-23T05:52:24.469Z,928.92
2019-04-23T05:53:18.636Z,928.91
2019-04-23T05:54:29.915Z,928.88
2019-04-23T05:55:38.438Z,928.86
2019-04-23T05:56:21.235Z,928.87
2019-04-23T05:57:13.954Z,928.84
2019-04-23T05:58:26.142Z,928.85
2019-04-23T05:59:18.047Z,928.85
2019-04-23T06:01:47.210Z,928.83
2019-04-23T06:02:20.771Z,928.82
2019-04-23T06:03:21.306Z,928.78
2019-04-23T06:05:30.566Z,928.85
2019-04-23T06:06:36.118Z,928.88
2019-04-23T06:08:25.792Z,928.90
2019-04-23T06:09:22.143Z,928.87
2019-04-23T06:10:23.400Z,928.87
2019-04-23T06:11:33.238Z,928.85
2019-04-23T06:12:15.678Z,928.84
2019-04-23T06:13:18.661Z,928.82
2019-04-23T06:14:18.724Z,928.84
2019-04-23T06:15:20.282Z,928.82
2019-04-23T06:16:22.346Z,928.80
2019-04-23T06:18:28.561Z,928.82
2019-04-23T06:19:17.122Z,928.78
2019-04-23T06:20:31.628Z,928.79
2019-04-23T06:22:34.957Z,928.76
2019-04-23T06:23:43.587Z,928.72
2019-04-23T06:24:26.134Z,928.71
2019-04-23T06:25:30.691Z,928.74
2019-04-23T06:27:21.733Z,928.73
2019-04-23T06:28:21.223Z,928.74
2019-04-23T06:29:37.558Z,928.75
2019-04-23T06:30:40.728Z,928.71
2019-04-23T06:31:24.510Z,928.72
2019-04-23T06:32:23.156Z,928.72
2019-04-23T06:33:21.070Z,928.73
2019-04-23T06:34:27.222Z,928.75
2019-04-23T06:35:19.127Z,928.73
2019-04-23T06:36:19.564Z,928.75
2019-04-23T06:37:21.425Z,928.78
2019-04-23T06:39:15.859Z,928.78
2019-04-23T06:40:23.648Z,928.85
2019-04-23T06:41:21.921Z,928.85
2019-04-23T06:42:18.008Z,928.81
2019-04-23T06:43:22.559Z,928.79
2019-04-23T06:44:28.472Z,928.82
2019-04-23T06:45:18.676Z,928.85
2019-04-23T06:46:20.101Z,928.85
2019-04-23T06:47:16.794Z,928.86
2019-04-23T06:48:22.172Z,928.84
2019-04-23T06:49:26.452Z,928.89
2019-04-23T06:50:11.743Z,928.86
2019-04-23T06:51:22.038Z,928.88
2019-04-23T06:52:18.993Z,928.86
2019-04-23T06:53:14.819Z,928.88
2019-04-23T06:54:19.278Z,928.85
2019-04-23T06:55:20.498Z,928.85
2019-04-23T06:56:21.057Z,928.89
2019-04-23T06:57:18.001Z,928.88
2019-04-23T06:58:26.259Z,928.92
2019-04-23T06:59:22.346Z,928.85
2019-04-23T07:00:21.172Z,928.89
2019-04-23T07:01:37.852Z,928.92
2019-04-23T07:02:33.808Z,928.86
2019-04-23T07:03:22.154Z,928.89
2019-04-23T07:04:17.918Z,928.87
2019-04-23T07:05:25.311Z,928.87
2019-04-23T07:07:37.832Z,928.85
2019-04-23T07:08:22.426Z,928.90
2019-04-23T07:10:18.687Z,928.89
2019-04-23T07:11:28.767Z,928.90
2019-04-23T07:12:20.421Z,928.86
2019-04-23T07:13:21.219Z,928.81
2019-04-23T07:14:17.076Z,928.87
2019-04-23T07:16:17.911Z,928.86
2019-04-23T07:17:16.738Z,928.88
2019-04-23T07:18:16.172Z,928.91
2019-04-23T07:21:30.613Z,928.91
2019-04-23T07:22:16.011Z,928.90
2019-04-23T07:23:26.054Z,928.90
2019-04-23T07:24:15.214Z,928.89
2019-04-23T07:25:17.304Z,928.87
2019-04-23T07:26:36.343Z,928.95
2019-04-23T07:27:19.137Z,928.94
2019-04-23T07:28:23.484Z,928.96
2019-04-23T07:29:22.532Z,928.98
2019-04-23T07:31:24.277Z,929.00
2019-04-23T07:32:15.536Z,929.03
2019-04-23T07:33:18.602Z,929.01
2019-04-23T07:34:12.436Z,928.96
2019-04-23T07:36:26.739Z,929.01
2019-04-23T07:37:17.608Z,928.99
2019-04-23T07:38:24.047Z,928.97
2019-04-23T07:39:35.235Z,929.01
2019-04-23T07:40:27.123Z,929.03
2019-04-23T07:41:23.708Z,929.00
2019-04-23T07:43:15.555Z,928.99
2019-04-23T07:44:35.529Z,929.05
2019-04-23T07:45:28.112Z,929.07
2019-04-23T07:46:29.769Z,929.07
2019-04-23T07:47:20.487Z,929.10
2019-04-23T07:48:14.940Z,929.14
2019-04-23T07:49:17.904Z,929.13
2019-04-23T07:50:28.953Z,929.16
2019-04-23T07:51:20.927Z,929.13
2019-04-23T07:53:17.007Z,929.12
2019-04-23T07:54:22.790Z,929.13
2019-04-23T07:55:25.561Z,929.16
2019-04-23T07:56:21.220Z,929.14
2019-04-23T07:57:18.792Z,929.10
2019-04-23T07:58:19.588Z,929.11
2019-04-23T07:59:20.668Z,929.09
2019-04-23T08:00:20.981Z,929.14
2019-04-23T08:01:14.146Z,929.08
2019-04-23T08:02:23.462Z,929.15
2019-04-23T08:03:29.384Z,929.13
2019-04-23T08:04:18.261Z,929.10
2019-04-23T08:06:15.568Z,929.09
2019-04-23T08:07:23.148Z,929.06
2019-04-23T08:08:12.145Z,929.08
2019-04-23T08:09:22.378Z,929.08
2019-04-23T08:10:14.095Z,929.09
2019-04-23T08:12:25.229Z,929.09
2019-04-23T08:13:22.319Z,929.12
2019-04-23T08:14:22.302Z,929.12
2019-04-23T08:15:18.178Z,929.12
2019-04-23T08:17:21.023Z,929.16
2019-04-23T08:18:18.046Z,929.18
2019-04-23T08:19:20.785Z,929.20
2019-04-23T08:20:19.466Z,929.18
2019-04-23T08:21:14.731Z,929.24
2019-04-23T08:23:16.199Z,929.27
2019-04-23T08:24:10.260Z,929.30
2019-04-23T08:25:17.808Z,929.30
2019-04-23T08:26:29.557Z,929.33
2019-04-23T08:28:25.837Z,929.41
2019-04-23T08:29:13.927Z,929.45
2019-04-23T08:30:09.771Z,929.44
2019-04-23T08:31:08.118Z,929.50
2019-04-23T08:32:13.920Z,929.56
2019-04-23T08:33:21.258Z,929.59
2019-04-23T08:34:28.529Z,929.60
2019-04-23T08:35:16.386Z,929.59
2019-04-23T08:36:23.710Z,929.59
2019-04-23T08:37:14.992Z,929.60
2019-04-23T08:39:20.791Z,929.62
2019-04-23T08:40:26.589Z,929.66
2019-04-23T08:41:32.121Z,929.64
2019-04-23T08:42:33.351Z,929.66
2019-04-23T08:44:21.996Z,929.64
2019-04-23T08:45:24.160Z,929.64
2019-04-23T08:46:14.073Z,929.66
2019-04-23T08:47:17.052Z,929.67
2019-04-23T08:49:25.421Z,929.60
2019-04-23T08:50:26.346Z,929.68
2019-04-23T08:51:31.485Z,929.65
2019-04-23T08:52:17.196Z,929.67
2019-04-23T08:53:37.398Z,929.70
2019-04-23T08:54:25.305Z,929.69
2019-04-23T08:55:16.937Z,929.66
2019-04-23T08:56:16.908Z,929.68
2019-04-23T08:57:14.400Z,929.72
2019-04-23T08:58:20.579Z,929.78
2019-04-23T08:59:24.967Z,929.75
2019-04-23T09:00:14.160Z,929.76
2019-04-23T09:01:19.844Z,929.75
2019-04-23T09:02:30.872Z,929.77
2019-04-23T09:03:18.802Z,929.81
2019-04-23T09:04:16.880Z,929.79
2019-04-23T09:05:18.103Z,929.79
2019-04-23T09:07:28.287Z,929.82
2019-04-23T09:09:21.910Z,929.79
2019-04-23T09:10:20.878Z,929.81
2019-04-23T09:11:30.773Z,929.83
2019-04-23T09:13:47.058Z,929.85
2019-04-23T09:14:15.862Z,929.84
2019-04-23T09:15:23.490Z,929.89
2019-04-23T09:16:22.383Z,929.92
2019-04-23T09:17:16.750Z,929.95
2019-04-23T09:18:16.615Z,929.99
2019-04-23T09:19:31.626Z,929.96
2019-04-23T09:21:16.125Z,930.09
2019-04-23T09:22:25.153Z,930.06
2019-04-23T09:23:11.575Z,930.09
2019-04-23T09:24:11.782Z,930.16
2019-04-23T09:25:20.273Z,930.12
2019-04-23T09:26:09.014Z,930.16
2019-04-23T09:27:22.588Z,930.17
2019-04-23T09:31:18.877Z,930.23
2019-04-23T09:33:13.686Z,930.28
2019-04-23T09:34:09.611Z,930.28
2019-04-23T09:36:18.158Z,930.27
2019-04-23T09:37:20.977Z,930.35
2019-04-23T09:38:11.532Z,930.33
2019-04-23T09:40:28.165Z,930.36
2019-04-23T09:41:25.071Z,930.37
2019-04-23T09:42:22.324Z,930.40
2019-04-23T09:43:13.867Z,930.44
2019-04-23T09:44:42.685Z,930.42
2019-04-23T09:45:17.180Z,930.42
2019-04-23T09:46:17.932Z,930.47
2019-04-23T09:47:29.340Z,930.47
2019-04-23T09:48:08.571Z,930.51
2019-04-23T09:49:20.447Z,930.52
2019-04-23T09:50:18.884Z,930.52
2019-04-23T09:51:21.000Z,930.56
2019-04-23T09:52:28.908Z,930.61
2019-04-23T09:53:25.237Z,930.62
2019-04-23T09:54:21.870Z,930.66
2019-04-23T09:55:23.235Z,930.62
2019-04-23T09:56:14.662Z,930.61
2019-04-23T09:57:10.349Z,930.68
2019-04-23T09:58:13.552Z,930.64
2019-04-23T10:00:18.776Z,930.72
2019-04-23T10:01:20.775Z,930.73
2019-04-23T10:02:06.836Z,930.77
2019-04-23T10:03:05.027Z,930.78
2019-04-23T10:04:00.135Z,930.76
2019-04-23T10:05:01.314Z,930.84
2019-04-23T10:05:59.320Z,930.89
2019-04-23T10:07:02.050Z,930.88
2019-04-23T10:07:59.940Z,930.85
2019-04-23T10:08:52.013Z,930.91
2019-04-23T10:09:48.309Z,930.93
2019-04-23T10:10:47.355Z,930.91
2019-04-23T10:11:47.342Z,930.94
2019-04-23T10:12:48.198Z,930.94
2019-04-23T10:13:48.358Z,930.95
2019-04-23T10:14:57.744Z,931.01
2019-04-23T10:15:49.644Z,931.02
2019-04-23T10:16:47.441Z,931.05
2019-04-23T10:17:47.201Z,931.06
2019-04-23T10:18:47.182Z,931.13
2019-04-23T10:19:48.585Z,931.16
2019-04-23T10:20:48.642Z,931.15
2019-04-23T10:21:47.181Z,931.19
2019-04-23T10:22:48.273Z,931.20
2019-04-23T10:23:47.460Z,931.23
2019-04-23T10:24:47.034Z,931.25
2019-04-23T10:25:47.964Z,931.28
2019-04-23T10:26:48.123Z,931.25
2019-04-23T10:27:53.251Z,931.29
2019-04-23T10:28:47.693Z,931.31
2019-04-23T10:29:47.843Z,931.33
2019-04-23T10:30:46.932Z,931.33
2019-04-23T10:31:46.891Z,931.31
2019-04-23T10:32:47.598Z,931.30
2019-04-23T10:33:48.226Z,931.35
2019-04-23T10:34:56.286Z,931.34
2019-04-23T10:35:55.206Z,931.36
2019-04-23T10:36:47.366Z,931.35
2019-04-23T10:37:54.667Z,931.37
2019-04-23T10:38:53.993Z,931.44
2019-04-23T10:39:52.403Z,931.40
2019-04-23T10:40:50.098Z,931.51
2019-04-23T10:43:31.549Z,931.52
2019-04-23T10:44:31.238Z,931.53
2019-04-23T10:45:47.903Z,931.55
2019-04-23T10:46:53.137Z,931.60
2019-04-23T10:48:03.745Z,931.56
2019-04-23T10:49:18.359Z,931.46
2019-04-23T10:50:01.072Z,931.37
2019-04-23T10:53:09.843Z,931.40
2019-04-23T10:54:03.399Z,931.44
2019-04-23T10:55:22.328Z,931.57
2019-04-23T10:57:13.100Z,931.52
2019-04-23T10:57:59.620Z,931.59
2019-04-23T10:58:54.527Z,931.62
2019-04-23T11:00:12.626Z,931.68
2019-04-23T11:01:01.710Z,931.57
2019-04-23T11:02:09.956Z,931.58
2019-04-23T11:03:01.516Z,931.58
2019-04-23T11:04:10.729Z,931.54
2019-04-23T11:07:06.290Z,931.46
2019-04-23T11:07:47.095Z,931.49
2019-04-23T11:09:08.252Z,931.50
2019-04-23T11:11:00.848Z,931.51
2019-04-23T11:12:02.197Z,931.51
2019-04-23T11:13:09.319Z,931.51
2019-04-23T11:14:05.404Z,931.51
2019-04-23T11:15:09.157Z,931.50
2019-04-23T11:16:25.098Z,931.47
2019-04-23T11:17:17.088Z,931.49
2019-04-23T11:17:52.016Z,931.46
2019-04-23T11:19:10.783Z,931.48
2019-04-23T11:20:07.547Z,931.52
2019-04-23T11:20:58.670Z,931.59
2019-04-23T11:22:02.380Z,931.58
2019-04-23T11:23:04.835Z,931.56
2019-04-23T11:24:04.835Z,931.60
2019-04-23T11:24:59.422Z,931.63
2019-04-23T11:26:01.227Z,931.71
2019-04-23T11:26:57.765Z,931.86
2019-04-23T11:28:06.814Z,931.75
2019-04-23T11:29:02.155Z,931.71
2019-04-23T11:30:55.942Z,931.78
2019-04-23T11:32:11.801Z,931.81
2019-04-23T11:33:09.886Z,931.81
2019-04-23T11:34:01.636Z,931.81
2019-04-23T11:36:22.157Z,931.81
2019-04-23T11:40:01.983Z,931.86
2019-04-23T11:41:23.377Z,931.78
2019-04-23T11:42:08.601Z,931.80
2019-04-23T11:43:55.812Z,931.79
2019-04-23T11:45:06.983Z,931.88
2019-04-23T11:46:07.990Z,931.80
2019-04-23T11:47:04.302Z,931.87
2019-04-23T11:48:14.196Z,931.85
2019-04-23T11:50:13.959Z,931.82
2019-04-23T11:52:12.772Z,931.81
2019-04-23T11:52:54.507Z,931.91
2019-04-23T11:55:03.098Z,931.93
2019-04-23T11:56:32.545Z,931.93
2019-04-23T11:57:22.001Z,931.95
2019-04-23T11:58:07.671Z,931.94
2019-04-23T11:59:11.852Z,931.98
2019-04-23T11:59:58.940Z,932.00
2019-04-23T12:01:46.425Z,931.90
2019-04-23T12:03:26.900Z,931.95
2019-04-23T12:04:05.218Z,931.97
2019-04-23T12:05:17.119Z,932.19
2019-04-23T12:06:09.605Z,932.33
2019-04-23T12:07:06.164Z,932.14
2019-04-23T12:07:57.673Z,932.12
2019-04-23T12:09:22.234Z,932.12
2019-04-23T12:11:27.528Z,932.14
2019-04-23T12:12:02.222Z,932.36
2019-04-23T12:12:57.539Z,932.23
2019-04-23T12:14:03.250Z,932.23
2019-04-23T12:14:56.235Z,932.26
2019-04-23T12:16:23.859Z,932.30
2019-04-23T12:17:07.886Z,932.33
2019-04-23T12:17:59.341Z,932.62
2019-04-23T12:20:13.050Z,932.36
2019-04-23T12:20:49.527Z,932.25
2019-04-23T12:22:01.488Z,932.29
2019-04-23T12:23:04.179Z,932.64
2019-04-23T12:24:07.227Z,932.33
2019-04-23T12:25:06.432Z,932.34
2019-04-23T12:26:03.518Z,932.33
2019-04-23T12:27:00.685Z,932.46
2019-04-23T12:27:42.195Z,932.56
2019-04-23T12:28:57.330Z,932.39
2019-04-23T12:31:59.926Z,932.29
2019-04-23T12:33:06.989Z,932.28
2019-04-23T12:33:57.502Z,932.27
2019-04-23T12:35:04.352Z,932.33
2019-04-23T12:35:50.003Z,932.38
2019-04-23T12:36:50.963Z,932.34
2019-04-23T12:37:53.845Z,932.37
2019-04-23T12:38:55.248Z,932.55
2019-04-23T12:40:00.102Z,932.76
2019-04-23T12:40:59.371Z,932.77
2019-04-23T12:42:01.725Z,932.80
2019-04-23T12:44:02.106Z,932.71
2019-04-23T12:45:10.015Z,932.72
2019-04-23T12:45:53.262Z,932.70
2019-04-23T12:47:05.405Z,932.72
2019-04-23T12:48:18.422Z,932.76
2019-04-23T12:51:53.792Z,932.72
2019-04-23T12:53:49.440Z,932.41
2019-04-23T12:55:54.476Z,932.43
2019-04-23T12:57:03.630Z,932.41
2019-04-23T12:57:52.207Z,932.40
2019-04-23T12:58:50.863Z,932.44
2019-04-23T13:00:01.549Z,932.40
2019-04-23T13:00:51.487Z,932.37
2019-04-23T13:01:55.623Z,932.33
2019-04-23T13:03:50.829Z,932.34
2019-04-23T13:05:11.658Z,932.41
2019-04-23T13:05:42.316Z,932.36
2019-04-23T13:08:25.554Z,932.32
2019-04-23T13:08:53.694Z,932.32
2019-04-23T13:10:50.791Z,932.38
2019-04-23T13:11:58.029Z,932.66
2019-04-23T13:13:09.212Z,932.67
2019-04-23T13:14:00.831Z,932.41
2019-04-23T13:15:03.658Z,932.75
2019-04-23T13:15:53.703Z,932.72
2019-04-23T13:17:00.700Z,932.27
2019-04-23T13:20:49.623Z,932.22
2019-04-23T13:23:03.181Z,932.33
2019-04-23T13:23:54.651Z,932.31
2019-04-23T13:24:57.817Z,932.26
2019-04-23T13:25:54.257Z,932.45
2019-04-23T13:26:58.934Z,932.24
2019-04-23T13:28:01.931Z,932.20
2019-04-23T13:28:52.522Z,932.14
2019-04-23T13:29:56.813Z,932.15
2019-04-23T13:31:49.928Z,932.14
2019-04-23T13:33:03.188Z,932.08
2019-04-23T13:33:52.486Z,932.06
2019-04-23T13:36:00.984Z,932.12
2019-04-23T13:37:05.165Z,932.08
2019-04-23T13:38:17.374Z,932.10
2019-04-23T13:39:10.255Z,932.07
2019-04-23T13:39:51.550Z,932.09
2019-04-23T13:41:01.218Z,932.09
2019-04-23T13:41:52.115Z,932.03
2019-04-23T13:44:08.771Z,931.93
2019-04-23T13:44:57.464Z,932.00
2019-04-23T13:47:02.938Z,931.99
2019-04-23T13:48:03.229Z,931.92
2019-04-23T13:48:56.088Z,931.99
2019-04-23T13:49:57.338Z,931.97
2019-04-23T13:51:03.414Z,931.93
2019-04-23T13:51:58.775Z,932.04
2019-04-23T13:53:42.630Z,932.20
2019-04-23T13:53:59.278Z,932.22
2019-04-23T13:55:02.857Z,931.89
2019-04-23T13:55:56.693Z,931.86
2019-04-23T13:58:59.911Z,932.06
2019-04-23T13:59:56.217Z,932.23
2019-04-23T14:01:54.723Z,932.29
2019-04-23T14:03:09.779Z,932.31
2019-04-23T14:04:01.307Z,932.28
2019-04-23T14:05:08.656Z,932.33
2019-04-23T14:06:01.840Z,932.29
2019-04-23T14:06:57.438Z,932.34
2019-04-23T14:08:00.846Z,932.28
2019-04-23T14:09:14.772Z,932.07
2019-04-23T14:10:55.852Z,932.21
2019-04-23T14:11:51.791Z,932.20
2019-04-23T14:13:29.668Z,931.96
2019-04-23T14:13:55.145Z,932.08
2019-04-23T14:15:12.702Z,932.21
2019-04-23T14:16:59.746Z,932.13
2019-04-23T14:18:36.406Z,932.04
2019-04-23T14:18:58.652Z,932.17
2019-04-23T14:19:53.935Z,932.13
2019-04-23T14:20:57.519Z,932.09
2019-04-23T14:21:51.551Z,932.15
2019-04-23T14:25:02.128Z,932.13
2019-04-23T14:26:10.898Z,932.06
2019-04-23T14:26:59.135Z,932.04
2019-04-23T14:28:08.048Z,932.00
2019-04-23T14:28:52.981Z,931.88
2019-04-23T14:30:05.500Z,931.71
2019-04-23T14:31:00.696Z,931.98
2019-04-23T14:32:04.563Z,931.77
2019-04-23T14:32:59.456Z,931.98
2019-04-23T14:35:04.601Z,931.61
2019-04-23T14:35:49.837Z,931.57
2019-04-23T14:37:01.001Z,931.56
2019-04-23T14:38:09.227Z,931.48
2019-04-23T14:38:59.559Z,931.54
2019-04-23T14:39:52.656Z,931.64
2019-04-23T14:41:06.035Z,931.63
2019-04-23T14:41:56.573Z,931.66
2019-04-23T14:43:06.517Z,931.82
2019-04-23T14:45:00.675Z,931.86
2019-04-23T14:46:24.580Z,931.83
2019-04-23T14:47:00.610Z,931.83
2019-04-23T14:48:04.535Z,931.69
2019-04-23T14:48:58.299Z,931.71
2019-04-23T14:50:15.005Z,931.81
2019-04-23T14:50:56.913Z,931.70
2019-04-23T14:53:08.206Z,931.64
2019-04-23T14:55:35.437Z,931.59
2019-04-23T14:56:06.246Z,931.46
2019-04-23T14:56:59.233Z,931.57
2019-04-23T14:58:07.896Z,931.68
2019-04-23T14:59:57.544Z,931.39
2019-04-23T15:01:06.880Z,931.38
2019-04-23T15:01:54.941Z,931.34
2019-04-23T15:02:59.329Z,931.37
2019-04-23T15:03:49.449Z,931.53
2019-04-23T15:04:56.474Z,931.58
2019-04-23T15:06:09.389Z,931.64
2019-04-23T15:07:58.238Z,931.26
2019-04-23T15:10:05.801Z,931.51
2019-04-23T15:11:06.118Z,931.39
2019-04-23T15:12:02.184Z,931.52
2019-04-23T15:13:54.710Z,931.64
2019-04-23T15:15:05.847Z,931.58
2019-04-23T15:16:02.994Z,931.52
2019-04-23T15:17:59.699Z,931.53
2019-04-23T15:19:55.130Z,931.43
2019-04-23T15:21:10.104Z,931.46
2019-04-23T15:23:24.715Z,931.24
2019-04-23T15:24:09.220Z,931.23
2019-04-23T15:25:09.368Z,931.25
2019-04-23T15:26:41.478Z,931.30